Terminal Aerodrome Forecast
Issued by NWS

Home | Current Version | Previous Version | Text Only | Print | Product List | Glossary On
Versions: 1 2 3 4 5 6 7 8 9 10 11 12 13 14 15 16 17 18 19 20 21 22 23 24 25 26 27 28 29 30
000
FTUS44 KLIX 260828 AAA
TAFHUM
TAF AMD
KHUM 260828Z 2608/2706 00000KT P6SM SCT003
      TEMPO 2608/2612 3SM BR BKN003
     FM261400 04007KT P6SM FEW250
     FM261600 09009KT P6SM SCT050
     FM270200 00000KT P6SM BKN200=

USA.gov is the U.S. government's official web portal to all federal, state and local government web resources and services.